Rembert, South Carolina
Current Conditions -  °F | °C
As of 6:58 AM on Thursday 27 Nov 2014 (Local Time) from KSSC Reporting Station
Clear Clear  
Wind Chill: 35°   Ceiling: Unl
Heat Index: 42°   Visibility: 10mi
Dew Point: 32°   Wind: 12mph
Humidity: 68%   Direction: 240°WSW
Pressure: 30.03"   Gusts: NA
Location:  34.1°N, 80.53°W
Report Text: KSSC 271158Z AUTO 24010KT 10SM CLR 05/00 A3003 RMK AO2 SLP172 70017 T00540000 10068 20031 53004 $
Loading
Personal Weather Stations






























Interactive Weather Map New forecast layout! Learn more

10-Day Weather Forecast

Advertisements
Track Severe Weather on mobile